地図

経路データ

SID SEASON NUMBER BASIN SUBBASIN NAME ISO_TIME NATURE LAT LON WMO_WIND WMO_PRES WMO_AGENCY TRACK_TYPE DIST2LAND LANDFALL IFLAG USA_AGENCY USA_ATCF_ID USA_LAT USA_LON USA_RECORD USA_STATUS USA_WIND USA_PRES USA_SSHS USA_R34_NE USA_R34_SE USA_R34_SW USA_R34_NW USA_R50_NE USA_R50_SE USA_R50_SW USA_R50_NW USA_R64_NE USA_R64_SE USA_R64_SW USA_R64_NW USA_POCI USA_ROCI USA_RMW USA_EYE TOKYO_LAT TOKYO_LON TOKYO_GRADE TOKYO_WIND TOKYO_PRES TOKYO_R50_DIR TOKYO_R50_LONG TOKYO_R50_SHORT TOKYO_R30_DIR TOKYO_R30_LONG TOKYO_R30_SHORT TOKYO_LAND CMA_LAT CMA_LON CMA_CAT CMA_WIND CMA_PRES HKO_LAT HKO_LON HKO_CAT HKO_WIND HKO_PRES NEWDELHI_LAT NEWDELHI_LON NEWDELHI_GRADE NEWDELHI_WIND NEWDELHI_PRES NEWDELHI_CI NEWDELHI_DP NEWDELHI_POCI REUNION_LAT REUNION_LON REUNION_TYPE REUNION_WIND REUNION_PRES REUNION_TNUM REUNION_CI REUNION_RMW REUNION_R34_NE REUNION_R34_SE REUNION_R34_SW REUNION_R34_NW REUNION_R50_NE REUNION_R50_SE REUNION_R50_SW REUNION_R50_NW REUNION_R64_NE REUNION_R64_SE REUNION_R64_SW REUNION_R64_NW BOM_LAT BOM_LON BOM_TYPE BOM_WIND BOM_PRES BOM_TNUM BOM_CI BOM_RMW BOM_R34_NE BOM_R34_SE BOM_R34_SW BOM_R34_NW BOM_R50_NE BOM_R50_SE BOM_R50_SW BOM_R50_NW BOM_R64_NE BOM_R64_SE BOM_R64_SW BOM_R64_NW BOM_ROCI BOM_POCI BOM_EYE BOM_POS_METHOD BOM_PRES_METHOD NADI_LAT NADI_LON NADI_CAT NADI_WIND NADI_PRES WELLINGTON_LAT WELLINGTON_LON WELLINGTON_WIND WELLINGTON_PRES DS824_LAT DS824_LON DS824_STAGE DS824_WIND DS824_PRES TD9636_LAT TD9636_LON TD9636_STAGE TD9636_WIND TD9636_PRES TD9635_LAT TD9635_LON TD9635_WIND TD9635_PRES TD9635_ROCI NEUMANN_LAT NEUMANN_LON NEUMANN_CLASS NEUMANN_WIND NEUMANN_PRES MLC_LAT MLC_LON MLC_CLASS MLC_WIND MLC_PRES USA_GUST BOM_GUST BOM_GUST_PER REUNION_GUST REUNION_GUST_PER USA_SEAHGT USA_SEARAD_NE USA_SEARAD_SE USA_SEARAD_SW USA_SEARAD_NW STORM_SPEED STORM_DIR
1953101S09062 1953 19 SI MM NOT_NAMED 1953-04-10 18:00:00 TS -9.30000 61.8000 main 1286 1286 O________OO___ jtwc_sh SH201953 -9.30000 61.8000 -1 -9.30000 61.8000 TC -9.30000 61.8000 7 2 22
1953101S09062 1953 19 SI MM NOT_NAMED 1953-04-10 21:00:00 TS -9.21804 61.8395 main 1297 1297 P________PP___ SH201953 -9.18249 61.8525 -1 -9.18249 61.8525 TC -9.28914 61.8135 7 1 60
1953101S09062 1953 19 SI MM NOT_NAMED 1953-04-11 00:00:00 TS -9.25087 61.8805 main 1290 1269 O________OP___ jtwc_sh SH201953 -9.20000 61.9000 -1 -9.20000 61.9000 TC 25 -9.35262 61.8416 7 3 163
1953101S09062 1953 19 SI MM NOT_NAMED 1953-04-11 03:00:00 TS -9.49828 61.9280 main 1269 1221 P________PP___ SH201953 -9.46503 61.9426 -1 -9.46503 61.9426 TC 25 -9.56477 61.8988 7 8 171
1953101S09062 1953 19 SI MM NOT_NAMED 1953-04-11 06:00:00 TS -10.0000 62.0000 main 1221 1152 O________OO___ jtwc_sh SH201953 -10.0000 62.0000 -1 -10.0000 62.0000 TC 25 -10.0000 62.0000 1 13 172
1953101S09062 1953 19 SI MM NOT_NAMED 1953-04-11 09:00:00 TS -10.7508 62.1156 main 1142 1066 P________PP___ SH201953 -10.7751 62.0999 -1 -10.7751 62.0999 TC 25 -10.7022 62.1470 1 17 172
1953101S09062 1953 19 SI MM NOT_NAMED 1953-04-11 12:00:00 TS -11.6642 62.2298 main 1055 981 O________OP___ jtwc_sh SH201953 -11.7000 62.2000 -1 -11.7000 62.2000 TC 25 -11.5925 62.2893 1 19 174
1953101S09062 1953 19 SI MM NOT_NAMED 1953-04-11 15:00:00 TS -12.5971 62.3271 main 972 886 P________PP___ SH201953 -12.6149 62.3096 -1 -12.6149 62.3096 TC 25 -12.5615 62.3622 1 19 178
1953101S09062 1953 19 SI MM NOT_NAMED 1953-04-11 18:00:00 TS -13.5000 62.3000 main 886 808 O________OO___ jtwc_sh SH201953 -13.5000 62.3000 -1 -13.5000 62.3000 TC 25 -13.5000 62.3000 1 17 188
1953101S09062 1953 19 SI MM NOT_NAMED 1953-04-11 21:00:00 TS -14.2872 62.0721 main 799 710 P________PP___ SH201953 -14.2874 62.0900 -1 -14.2874 62.0900 TC 25 -14.2868 62.0365 1 16 202
1953101S09062 1953 19 SI MM NOT_NAMED 1953-04-12 00:00:00 TS -15.0067 61.6773 main 710 625 O________OP___ jtwc_sh SH201953 -15.0000 61.7000 -1 -15.0000 61.7000 TC 25 -15.0200 61.6318 1 17 212
1953101S09062 1953 19 SI MM NOT_NAMED 1953-04-12 03:00:00 TS -15.6844 61.1704 main 616 524 P________PP___ SH201953 -15.6801 61.1875 -1 -15.6801 61.1875 TC 25 -15.6931 61.1360 1 17 219
1953101S09062 1953 19 SI MM NOT_NAMED 1953-04-12 06:00:00 TS -16.3000 60.6000 main 524 438 O________OO___ jtwc_sh SH201953 -16.3000 60.6000 -1 -16.3000 60.6000 TC 25 -16.3000 60.6000 1 16 222
1953101S09062 1953 19 SI MM NOT_NAMED 1953-04-12 09:00:00 TS -16.8823 60.0600 main 438 362 P________PP___ SH201953 -16.8874 60.0423 -1 -16.8874 60.0423 TC 25 -16.8721 60.0954 1 15 223
1953101S09062 1953 19 SI MM NOT_NAMED 1953-04-12 12:00:00 TS -17.3925 59.5216 main 356 291 O________OP___ jtwc_sh SH201953 -17.4000 59.5000 -1 -17.4000 59.5000 TC 25 -17.3774 59.5649 1 14 227
1953101S09062 1953 19 SI MM NOT_NAMED 1953-04-12 15:00:00 TS -17.8362 59.0038 main 291 228 P________PP___ SH201953 -17.8448 58.9922 -1 -17.8448 58.9922 TC 25 -17.8190 59.0268 1 13 230
1953101S09062 1953 19 SI MM NOT_NAMED 1953-04-12 18:00:00 TS -18.2000 58.5000 main 228 181 O________OO___ jtwc_sh SH201953 -18.2000 58.5000 -1 -18.2000 58.5000 TC 25 -18.2000 58.5000 1 12 236
1953101S09062 1953 19 SI MM NOT_NAMED 1953-04-12 21:00:00 TS -18.4806 57.9924 main 181 156 P________PP___ SH201953 -18.4649 57.9921 -1 -18.4649 57.9921 TC 25 -18.5119 57.9929 1 11 241
1953101S09062 1953 19 SI MM NOT_NAMED 1953-04-13 00:00:00 TS -18.7241 57.5010 main 156 129 O________OP___ jtwc_sh SH201953 -18.7000 57.5000 -1 -18.7000 57.5000 TC 25 -18.7722 57.5030 1 10 241
1953101S09062 1953 19 SI MM NOT_NAMED 1953-04-13 03:00:00 TS -18.9920 57.0354 main 133 124 P________PP___ SH201953 -18.9774 57.0348 -1 -18.9774 57.0348 TC 25 -19.0214 57.0368 1 10 236
1953101S09062 1953 19 SI MM NOT_NAMED 1953-04-13 06:00:00 TS -19.3000 56.6000 main 129 129 O________OO___ jtwc_sh SH201953 -19.3000 56.6000 -1 -19.3000 56.6000 TC 25 -19.3000 56.6000 1 11 230
1953101S09062 1953 19 SI MM NOT_NAMED 1953-04-13 09:00:00 TS -19.6725 56.1819 main 142 101 P________PP___ SH201953 -19.6849 56.1849 -1 -19.6849 56.1849 TC 25 -19.6475 56.1757 1 11 224
1953101S09062 1953 19 SI MM NOT_NAMED 1953-04-13 12:00:00 TS -20.0774 55.7941 main 101 55 O________OP___ jtwc_sh SH201953 -20.1000 55.8000 -1 -20.1000 55.8000 TC 25 -20.0322 55.7822 1 11 221
1953101S09062 1953 19 SI MM NOT_NAMED 1953-04-13 15:00:00 TS -20.4736 55.4307 main 55 23 P________PP___ SH201953 -20.4849 55.4347 -1 -20.4849 55.4347 TC 25 -20.4508 55.4225 1 11 218
1953101S09062 1953 19 SI MM NOT_NAMED 1953-04-13 18:00:00 TS -20.9000 55.1000 main 23 15 O________OO___ jtwc_sh SH201953 -20.9000 55.1000 -1 -20.9000 55.1000 TC 25 -20.9000 55.1000 1 11 213
1953101S09062 1953 19 SI MM NOT_NAMED 1953-04-13 21:00:00 TS -21.3820 54.7902 main 52 52 P________PP___ SH201953 -21.3850 54.7775 -1 -21.3850 54.7775 TC 25 -21.3760 54.8156 1 11 209
1953101S09062 1953 19 SI MM NOT_NAMED 1953-04-14 00:00:00 TS -21.8909 54.5204 main 106 106 O________OP___ jtwc_sh SH201953 -21.9000 54.5000 -1 -21.9000 54.5000 TC 25 -21.8726 54.5611 1 11 204
1953101S09062 1953 19 SI MM NOT_NAMED 1953-04-14 03:00:00 TS -22.3977 54.2971 main 160 160 P________PP___ SH201953 -22.4050 54.2826 -1 -22.4050 54.2826 TC 25 -22.3830 54.3261 1 11 201
1953101S09062 1953 19 SI MM NOT_NAMED 1953-04-14 06:00:00 TS -22.9000 54.1000 main 217 O________OO___ jtwc_sh SH201953 -22.9000 54.1000 -1 -22.9000 54.1000 TC 25 -22.9000 54.1000 1 11 200

IBTrACS Databaseについて

本データベースは、米国NOAAが公開する1842年以降の世界の熱帯低気圧のベストトラックデータアーカイブInternational Best Track Archive for Climate Stewardship (IBTrACS)を、ウェブで閲覧しやすい形式に変換したものです。

最終更新日:2021-12-06